sensor_id;sensor_type;location;lat;lon;timestamp;pressure;altitude;pressure_sealevel;temperature
24639;BMP180;1641;51.306;12.384;2022-11-09T00:00:19;99690.00;;;15.40
24639;BMP180;1641;51.306;12.384;2022-11-09T00:02:44;99691.00;;;15.20
24639;BMP180;1641;51.306;12.384;2022-11-09T00:05:09;99709.00;;;15.30
24639;BMP180;1641;51.306;12.384;2022-11-09T00:07:35;99702.00;;;15.30
24639;BMP180;1641;51.306;12.384;2022-11-09T00:10:00;99712.00;;;15.20
24639;BMP180;1641;51.306;12.384;2022-11-09T00:12:26;99713.00;;;15.10
24639;BMP180;1641;51.306;12.384;2022-11-09T00:14:51;99691.00;;;15.10
24639;BMP180;1641;51.306;12.384;2022-11-09T00:17:16;99710.00;;;15.10
24639;BMP180;1641;51.306;12.384;2022-11-09T00:19:41;99716.00;;;15.20
24639;BMP180;1641;51.306;12.384;2022-11-09T00:22:07;99716.00;;;15.50
24639;BMP180;1641;51.306;12.384;2022-11-09T00:24:32;99718.00;;;15.30
24639;BMP180;1641;51.306;12.384;2022-11-09T00:26:57;99716.00;;;15.20
24639;BMP180;1641;51.306;12.384;2022-11-09T00:29:22;99720.00;;;15.30
24639;BMP180;1641;51.306;12.384;2022-11-09T00:31:48;99716.00;;;15.40
24639;BMP180;1641;51.306;12.384;2022-11-09T00:34:14;99716.00;;;15.50
24639;BMP180;1641;51.306;12.384;2022-11-09T00:36:39;99714.00;;;15.60
24639;BMP180;1641;51.306;12.384;2022-11-09T00:39:07;99722.00;;;15.30
24639;BMP180;1641;51.306;12.384;2022-11-09T00:41:32;99707.00;;;15.10
24639;BMP180;1641;51.306;12.384;2022-11-09T00:43:57;99714.00;;;14.90
24639;BMP180;1641;51.306;12.384;2022-11-09T00:46:23;99715.00;;;14.70
24639;BMP180;1641;51.306;12.384;2022-11-09T00:48:48;99714.00;;;14.70
24639;BMP180;1641;51.306;12.384;2022-11-09T00:51:13;99711.00;;;14.70
24639;BMP180;1641;51.306;12.384;2022-11-09T00:53:39;99714.00;;;14.90
24639;BMP180;1641;51.306;12.384;2022-11-09T00:56:06;99712.00;;;14.90
24639;BMP180;1641;51.306;12.384;2022-11-09T00:58:34;99716.00;;;14.80
24639;BMP180;1641;51.306;12.384;2022-11-09T01:01:08;99716.00;;;14.90
24639;BMP180;1641;51.306;12.384;2022-11-09T01:03:35;99724.00;;;15.20
24639;BMP180;1641;51.306;12.384;2022-11-09T01:06:00;99700.00;;;15.20
24639;BMP180;1641;51.306;12.384;2022-11-09T01:08:26;99717.00;;;15.20
24639;BMP180;1641;51.306;12.384;2022-11-09T01:10:51;99712.00;;;15.00
24639;BMP180;1641;51.306;12.384;2022-11-09T01:13:18;99718.00;;;15.00
24639;BMP180;1641;51.306;12.384;2022-11-09T01:15:45;99721.00;;;15.10
24639;BMP180;1641;51.306;12.384;2022-11-09T01:18:11;99712.00;;;15.30
24639;BMP180;1641;51.306;12.384;2022-11-09T01:20:41;99678.00;;;15.10
24639;BMP180;1641;51.306;12.384;2022-11-09T01:23:08;99705.00;;;15.40
24639;BMP180;1641;51.306;12.384;2022-11-09T01:25:33;99708.00;;;15.40
24639;BMP180;1641;51.306;12.384;2022-11-09T01:27:59;99701.00;;;15.50
24639;BMP180;1641;51.306;12.384;2022-11-09T01:30:24;99698.00;;;15.20
24639;BMP180;1641;51.306;12.384;2022-11-09T01:32:50;99684.00;;;15.00
24639;BMP180;1641;51.306;12.384;2022-11-09T01:35:15;99692.00;;;15.10
24639;BMP180;1641;51.306;12.384;2022-11-09T01:37:40;99695.00;;;15.20
24639;BMP180;1641;51.306;12.384;2022-11-09T01:40:06;99671.00;;;15.40
24639;BMP180;1641;51.306;12.384;2022-11-09T01:42:34;99686.00;;;15.30
24639;BMP180;1641;51.306;12.384;2022-11-09T01:47:41;99688.00;;;15.50
24639;BMP180;1641;51.306;12.384;2022-11-09T01:50:09;99679.00;;;15.40
24639;BMP180;1641;51.306;12.384;2022-11-09T01:52:39;99680.00;;;15.50
24639;BMP180;1641;51.306;12.384;2022-11-09T01:55:09;99694.00;;;15.50
24639;BMP180;1641;51.306;12.384;2022-11-09T01:57:40;99685.00;;;15.30
24639;BMP180;1641;51.306;12.384;2022-11-09T02:00:11;99675.00;;;15.40
24639;BMP180;1641;51.306;12.384;2022-11-09T02:02:40;99678.00;;;15.30
24639;BMP180;1641;51.306;12.384;2022-11-09T02:05:11;99681.00;;;15.40
24639;BMP180;1641;51.306;12.384;2022-11-09T02:07:39;99674.00;;;15.10
24639;BMP180;1641;51.306;12.384;2022-11-09T02:10:11;99680.00;;;15.50
24639;BMP180;1641;51.306;12.384;2022-11-09T02:12:38;99679.00;;;15.50
24639;BMP180;1641;51.306;12.384;2022-11-09T02:15:06;99679.00;;;15.40
24639;BMP180;1641;51.306;12.384;2022-11-09T02:17:33;99689.00;;;15.60
24639;BMP180;1641;51.306;12.384;2022-11-09T02:19:59;99675.00;;;15.60
24639;BMP180;1641;51.306;12.384;2022-11-09T02:22:25;99677.00;;;15.60
24639;BMP180;1641;51.306;12.384;2022-11-09T02:24:51;99669.00;;;15.60
24639;BMP180;1641;51.306;12.384;2022-11-09T02:27:16;99644.00;;;15.50
24639;BMP180;1641;51.306;12.384;2022-11-09T02:29:44;99664.00;;;15.50
24639;BMP180;1641;51.306;12.384;2022-11-09T02:32:23;99671.00;;;15.50
24639;BMP180;1641;51.306;12.384;2022-11-09T02:34:49;99671.00;;;15.60
24639;BMP180;1641;51.306;12.384;2022-11-09T02:37:34;99673.00;;;15.20
24639;BMP180;1641;51.306;12.384;2022-11-09T02:40:05;99660.00;;;15.40
24639;BMP180;1641;51.306;12.384;2022-11-09T02:42:32;99666.00;;;15.30
24639;BMP180;1641;51.306;12.384;2022-11-09T02:44:58;99661.00;;;15.10
24639;BMP180;1641;51.306;12.384;2022-11-09T02:47:24;99659.00;;;14.80
24639;BMP180;1641;51.306;12.384;2022-11-09T02:49:50;99652.00;;;14.80
24639;BMP180;1641;51.306;12.384;2022-11-09T02:52:16;99648.00;;;15.00
24639;BMP180;1641;51.306;12.384;2022-11-09T02:54:41;99639.00;;;15.10
24639;BMP180;1641;51.306;12.384;2022-11-09T02:57:06;99623.00;;;14.80
24639;BMP180;1641;51.306;12.384;2022-11-09T02:59:32;99632.00;;;14.60
24639;BMP180;1641;51.306;12.384;2022-11-09T03:01:57;99632.00;;;14.90
24639;BMP180;1641;51.306;12.384;2022-11-09T03:04:22;99635.00;;;14.80
24639;BMP180;1641;51.306;12.384;2022-11-09T03:06:48;99624.00;;;15.00
24639;BMP180;1641;51.306;12.384;2022-11-09T03:09:13;99629.00;;;15.10
24639;BMP180;1641;51.306;12.384;2022-11-09T03:11:40;99608.00;;;15.00
24639;BMP180;1641;51.306;12.384;2022-11-09T03:14:05;99632.00;;;14.80
24639;BMP180;1641;51.306;12.384;2022-11-09T03:16:31;99638.00;;;15.00
24639;BMP180;1641;51.306;12.384;2022-11-09T03:18:57;99644.00;;;14.90
24639;BMP180;1641;51.306;12.384;2022-11-09T03:21:23;99638.00;;;14.90
24639;BMP180;1641;51.306;12.384;2022-11-09T03:23:49;99652.00;;;15.20
24639;BMP180;1641;51.306;12.384;2022-11-09T03:26:14;99644.00;;;14.90
24639;BMP180;1641;51.306;12.384;2022-11-09T03:28:39;99644.00;;;14.70
24639;BMP180;1641;51.306;12.384;2022-11-09T03:31:05;99631.00;;;14.90
24639;BMP180;1641;51.306;12.384;2022-11-09T03:33:31;99649.00;;;14.80
24639;BMP180;1641;51.306;12.384;2022-11-09T03:35:57;99647.00;;;14.90
24639;BMP180;1641;51.306;12.384;2022-11-09T03:38:22;99653.00;;;15.00
24639;BMP180;1641;51.306;12.384;2022-11-09T03:40:48;99649.00;;;14.70
24639;BMP180;1641;51.306;12.384;2022-11-09T03:43:13;99650.00;;;14.70
24639;BMP180;1641;51.306;12.384;2022-11-09T03:45:39;99661.00;;;14.60
24639;BMP180;1641;51.306;12.384;2022-11-09T03:48:04;99655.00;;;14.80
24639;BMP180;1641;51.306;12.384;2022-11-09T03:50:31;99627.00;;;14.80
24639;BMP180;1641;51.306;12.384;2022-11-09T03:53:00;99626.00;;;14.90
24639;BMP180;1641;51.306;12.384;2022-11-09T03:55:26;99651.00;;;14.90
24639;BMP180;1641;51.306;12.384;2022-11-09T03:57:52;99634.00;;;14.80
24639;BMP180;1641;51.306;12.384;2022-11-09T04:00:20;99643.00;;;14.70
24639;BMP180;1641;51.306;12.384;2022-11-09T04:02:45;99649.00;;;14.70
24639;BMP180;1641;51.306;12.384;2022-11-09T04:05:11;99608.00;;;14.70
24639;BMP180;1641;51.306;12.384;2022-11-09T04:07:37;99641.00;;;14.90
24639;BMP180;1641;51.306;12.384;2022-11-09T04:10:04;99638.00;;;14.80
24639;BMP180;1641;51.306;12.384;2022-11-09T04:12:29;99643.00;;;14.90
24639;BMP180;1641;51.306;12.384;2022-11-09T04:14:55;99634.00;;;15.00
24639;BMP180;1641;51.306;12.384;2022-11-09T04:17:20;99635.00;;;14.80
24639;BMP180;1641;51.306;12.384;2022-11-09T04:19:45;99632.00;;;14.80
24639;BMP180;1641;51.306;12.384;2022-11-09T04:22:10;99634.00;;;14.80
24639;BMP180;1641;51.306;12.384;2022-11-09T04:24:36;99635.00;;;14.70
24639;BMP180;1641;51.306;12.384;2022-11-09T04:27:02;99644.00;;;14.80
24639;BMP180;1641;51.306;12.384;2022-11-09T04:29:28;99628.00;;;15.00
24639;BMP180;1641;51.306;12.384;2022-11-09T04:31:53;99652.00;;;14.80
24639;BMP180;1641;51.306;12.384;2022-11-09T04:34:19;99663.00;;;15.10
24639;BMP180;1641;51.306;12.384;2022-11-09T04:36:44;99660.00;;;15.00
24639;BMP180;1641;51.306;12.384;2022-11-09T04:39:10;99672.00;;;15.30
24639;BMP180;1641;51.306;12.384;2022-11-09T04:41:35;99668.00;;;15.30
24639;BMP180;1641;51.306;12.384;2022-11-09T04:44:01;99659.00;;;15.40
24639;BMP180;1641;51.306;12.384;2022-11-09T04:46:26;99659.00;;;15.50
24639;BMP180;1641;51.306;12.384;2022-11-09T04:48:52;99680.00;;;15.20
24639;BMP180;1641;51.306;12.384;2022-11-09T04:51:17;99673.00;;;15.40
24639;BMP180;1641;51.306;12.384;2022-11-09T04:53:43;99673.00;;;15.10
24639;BMP180;1641;51.306;12.384;2022-11-09T04:56:10;99679.00;;;15.40
24639;BMP180;1641;51.306;12.384;2022-11-09T04:58:36;99675.00;;;15.10
24639;BMP180;1641;51.306;12.384;2022-11-09T05:01:06;99656.00;;;15.10
24639;BMP180;1641;51.306;12.384;2022-11-09T05:03:32;99669.00;;;15.00
24639;BMP180;1641;51.306;12.384;2022-11-09T05:05:57;99675.00;;;14.80
24639;BMP180;1641;51.306;12.384;2022-11-09T05:08:23;99672.00;;;15.00
24639;BMP180;1641;51.306;12.384;2022-11-09T05:10:48;99686.00;;;14.80
24639;BMP180;1641;51.306;12.384;2022-11-09T05:13:14;99676.00;;;15.00
24639;BMP180;1641;51.306;12.384;2022-11-09T05:15:39;99663.00;;;15.00
24639;BMP180;1641;51.306;12.384;2022-11-09T05:18:05;99682.00;;;15.10
24639;BMP180;1641;51.306;12.384;2022-11-09T05:20:31;99683.00;;;14.80
24639;BMP180;1641;51.306;12.384;2022-11-09T05:22:57;99685.00;;;15.00
24639;BMP180;1641;51.306;12.384;2022-11-09T05:25:41;99674.00;;;14.90
24639;BMP180;1641;51.306;12.384;2022-11-09T05:28:07;99673.00;;;14.80
24639;BMP180;1641;51.306;12.384;2022-11-09T05:30:32;99677.00;;;14.80
24639;BMP180;1641;51.306;12.384;2022-11-09T05:33:01;99658.00;;;14.60
24639;BMP180;1641;51.306;12.384;2022-11-09T05:35:29;99642.00;;;14.80
24639;BMP180;1641;51.306;12.384;2022-11-09T05:37:54;99679.00;;;14.70
24639;BMP180;1641;51.306;12.384;2022-11-09T05:40:20;99645.00;;;15.00
24639;BMP180;1641;51.306;12.384;2022-11-09T05:42:46;99672.00;;;14.60
24639;BMP180;1641;51.306;12.384;2022-11-09T05:45:14;99685.00;;;14.70
24639;BMP180;1641;51.306;12.384;2022-11-09T05:47:41;99682.00;;;14.70
24639;BMP180;1641;51.306;12.384;2022-11-09T05:50:09;99650.00;;;14.70
24639;BMP180;1641;51.306;12.384;2022-11-09T05:52:35;99685.00;;;14.50
24639;BMP180;1641;51.306;12.384;2022-11-09T05:55:01;99695.00;;;14.30
24639;BMP180;1641;51.306;12.384;2022-11-09T05:57:27;99663.00;;;14.70
24639;BMP180;1641;51.306;12.384;2022-11-09T05:59:55;99680.00;;;14.50
24639;BMP180;1641;51.306;12.384;2022-11-09T06:02:21;99686.00;;;14.60
24639;BMP180;1641;51.306;12.384;2022-11-09T06:04:46;99641.00;;;14.60
24639;BMP180;1641;51.306;12.384;2022-11-09T06:07:12;99642.00;;;14.50
24639;BMP180;1641;51.306;12.384;2022-11-09T06:09:37;99673.00;;;14.30
24639;BMP180;1641;51.306;12.384;2022-11-09T06:12:03;99677.00;;;14.60
24639;BMP180;1641;51.306;12.384;2022-11-09T06:14:28;99673.00;;;14.90
24639;BMP180;1641;51.306;12.384;2022-11-09T06:16:54;99669.00;;;14.80
24639;BMP180;1641;51.306;12.384;2022-11-09T06:19:19;99669.00;;;14.90
24639;BMP180;1641;51.306;12.384;2022-11-09T06:21:44;99664.00;;;14.90
24639;BMP180;1641;51.306;12.384;2022-11-09T06:24:09;99671.00;;;14.90
24639;BMP180;1641;51.306;12.384;2022-11-09T06:26:35;99660.00;;;15.10
24639;BMP180;1641;51.306;12.384;2022-11-09T06:29:01;99646.00;;;15.00
24639;BMP180;1641;51.306;12.384;2022-11-09T06:31:26;99657.00;;;14.90
24639;BMP180;1641;51.306;12.384;2022-11-09T06:33:55;99649.00;;;14.80
24639;BMP180;1641;51.306;12.384;2022-11-09T06:36:20;99650.00;;;14.80
24639;BMP180;1641;51.306;12.384;2022-11-09T06:38:51;99654.00;;;14.80
24639;BMP180;1641;51.306;12.384;2022-11-09T06:41:17;99660.00;;;14.80
24639;BMP180;1641;51.306;12.384;2022-11-09T06:43:43;99658.00;;;14.90
24639;BMP180;1641;51.306;12.384;2022-11-09T06:46:09;99645.00;;;14.90
24639;BMP180;1641;51.306;12.384;2022-11-09T06:48:41;99664.00;;;14.80
24639;BMP180;1641;51.306;12.384;2022-11-09T06:51:06;99673.00;;;14.60
24639;BMP180;1641;51.306;12.384;2022-11-09T06:53:33;99674.00;;;14.70
24639;BMP180;1641;51.306;12.384;2022-11-09T06:56:00;99689.00;;;14.90
24639;BMP180;1641;51.306;12.384;2022-11-09T06:58:26;99683.00;;;15.00
24639;BMP180;1641;51.306;12.384;2022-11-09T07:00:52;99679.00;;;14.60
24639;BMP180;1641;51.306;12.384;2022-11-09T07:03:18;99698.00;;;14.50
24639;BMP180;1641;51.306;12.384;2022-11-09T07:05:45;99690.00;;;14.50
24639;BMP180;1641;51.306;12.384;2022-11-09T07:08:11;99698.00;;;14.20
24639;BMP180;1641;51.306;12.384;2022-11-09T07:10:36;99694.00;;;14.20
24639;BMP180;1641;51.306;12.384;2022-11-09T07:13:02;99697.00;;;14.10
24639;BMP180;1641;51.306;12.384;2022-11-09T07:15:28;99698.00;;;14.00
24639;BMP180;1641;51.306;12.384;2022-11-09T07:17:57;99692.00;;;14.30
24639;BMP180;1641;51.306;12.384;2022-11-09T07:20:23;99694.00;;;14.50
24639;BMP180;1641;51.306;12.384;2022-11-09T07:22:49;99704.00;;;14.50
24639;BMP180;1641;51.306;12.384;2022-11-09T07:25:15;99719.00;;;14.40
24639;BMP180;1641;51.306;12.384;2022-11-09T07:27:41;99714.00;;;14.30
24639;BMP180;1641;51.306;12.384;2022-11-09T07:30:06;99725.00;;;14.40
24639;BMP180;1641;51.306;12.384;2022-11-09T07:32:34;99720.00;;;14.30
24639;BMP180;1641;51.306;12.384;2022-11-09T07:34:59;99708.00;;;14.10
24639;BMP180;1641;51.306;12.384;2022-11-09T07:37:24;99705.00;;;13.90
24639;BMP180;1641;51.306;12.384;2022-11-09T07:39:50;99704.00;;;13.80
24639;BMP180;1641;51.306;12.384;2022-11-09T07:42:15;99702.00;;;13.70
24639;BMP180;1641;51.306;12.384;2022-11-09T07:44:40;99702.00;;;13.90
24639;BMP180;1641;51.306;12.384;2022-11-09T07:47:06;99700.00;;;13.70
24639;BMP180;1641;51.306;12.384;2022-11-09T07:49:31;99681.00;;;13.70
24639;BMP180;1641;51.306;12.384;2022-11-09T07:51:56;99713.00;;;13.80
24639;BMP180;1641;51.306;12.384;2022-11-09T07:54:22;99712.00;;;14.00
24639;BMP180;1641;51.306;12.384;2022-11-09T07:56:49;99710.00;;;14.10
24639;BMP180;1641;51.306;12.384;2022-11-09T07:59:15;99703.00;;;13.90
24639;BMP180;1641;51.306;12.384;2022-11-09T08:01:40;99708.00;;;13.90
24639;BMP180;1641;51.306;12.384;2022-11-09T08:04:05;99710.00;;;14.20
24639;BMP180;1641;51.306;12.384;2022-11-09T08:06:31;99699.00;;;14.30
24639;BMP180;1641;51.306;12.384;2022-11-09T08:08:56;99703.00;;;14.40
24639;BMP180;1641;51.306;12.384;2022-11-09T08:11:22;99710.00;;;14.40
24639;BMP180;1641;51.306;12.384;2022-11-09T08:13:48;99715.00;;;14.40
24639;BMP180;1641;51.306;12.384;2022-11-09T08:16:13;99713.00;;;14.60
24639;BMP180;1641;51.306;12.384;2022-11-09T08:18:38;99717.00;;;14.30
24639;BMP180;1641;51.306;12.384;2022-11-09T08:21:04;99694.00;;;14.40
24639;BMP180;1641;51.306;12.384;2022-11-09T08:23:29;99717.00;;;14.70
24639;BMP180;1641;51.306;12.384;2022-11-09T08:25:55;99720.00;;;14.60
24639;BMP180;1641;51.306;12.384;2022-11-09T08:28:20;99718.00;;;14.60
24639;BMP180;1641;51.306;12.384;2022-11-09T08:30:54;99720.00;;;14.60
24639;BMP180;1641;51.306;12.384;2022-11-09T08:33:20;99729.00;;;14.70
24639;BMP180;1641;51.306;12.384;2022-11-09T08:35:45;99735.00;;;15.10
24639;BMP180;1641;51.306;12.384;2022-11-09T08:38:10;99748.00;;;15.30
24639;BMP180;1641;51.306;12.384;2022-11-09T08:40:36;99746.00;;;15.10
24639;BMP180;1641;51.306;12.384;2022-11-09T08:43:03;99736.00;;;14.80
24639;BMP180;1641;51.306;12.384;2022-11-09T08:45:30;99746.00;;;14.60
24639;BMP180;1641;51.306;12.384;2022-11-09T08:47:57;99755.00;;;14.60
24639;BMP180;1641;51.306;12.384;2022-11-09T08:50:23;99747.00;;;14.90
24639;BMP180;1641;51.306;12.384;2022-11-09T08:52:49;99762.00;;;15.10
24639;BMP180;1641;51.306;12.384;2022-11-09T08:55:14;99764.00;;;15.30
24639;BMP180;1641;51.306;12.384;2022-11-09T08:57:39;99761.00;;;15.40
24639;BMP180;1641;51.306;12.384;2022-11-09T09:00:05;99771.00;;;15.50
24639;BMP180;1641;51.306;12.384;2022-11-09T09:02:30;99757.00;;;15.80
24639;BMP180;1641;51.306;12.384;2022-11-09T09:04:56;99775.00;;;15.60
24639;BMP180;1641;51.306;12.384;2022-11-09T09:07:21;99773.00;;;15.60
24639;BMP180;1641;51.306;12.384;2022-11-09T09:09:46;99774.00;;;15.40
24639;BMP180;1641;51.306;12.384;2022-11-09T09:12:11;99781.00;;;15.50
24639;BMP180;1641;51.306;12.384;2022-11-09T09:14:37;99780.00;;;15.50
24639;BMP180;1641;51.306;12.384;2022-11-09T09:17:03;99770.00;;;15.50
24639;BMP180;1641;51.306;12.384;2022-11-09T09:19:28;99771.00;;;15.70
24639;BMP180;1641;51.306;12.384;2022-11-09T09:21:53;99753.00;;;15.50
24639;BMP180;1641;51.306;12.384;2022-11-09T09:24:19;99762.00;;;15.70
24639;BMP180;1641;51.306;12.384;2022-11-09T09:26:44;99760.00;;;16.00
24639;BMP180;1641;51.306;12.384;2022-11-09T09:29:10;99756.00;;;15.70
24639;BMP180;1641;51.306;12.384;2022-11-09T09:31:37;99747.00;;;15.50
24639;BMP180;1641;51.306;12.384;2022-11-09T09:34:03;99751.00;;;15.20
24639;BMP180;1641;51.306;12.384;2022-11-09T09:36:28;99746.00;;;15.40
24639;BMP180;1641;51.306;12.384;2022-11-09T09:38:54;99761.00;;;15.30
24639;BMP180;1641;51.306;12.384;2022-11-09T09:41:39;99747.00;;;15.40
24639;BMP180;1641;51.306;12.384;2022-11-09T09:47:16;99750.00;;;15.50
24639;BMP180;1641;51.306;12.384;2022-11-09T09:49:46;99739.00;;;15.40
24639;BMP180;1641;51.306;12.384;2022-11-09T09:57:40;99751.00;;;15.80
24639;BMP180;1641;51.306;12.384;2022-11-09T10:00:18;99740.00;;;16.20
24639;BMP180;1641;51.306;12.384;2022-11-09T10:02:44;99727.00;;;16.00
24639;BMP180;1641;51.306;12.384;2022-11-09T10:05:13;99739.00;;;16.10
24639;BMP180;1641;51.306;12.384;2022-11-09T10:08:05;99736.00;;;16.20
24639;BMP180;1641;51.306;12.384;2022-11-09T10:16:03;99728.00;;;16.10
24639;BMP180;1641;51.306;12.384;2022-11-09T10:23:56;99741.00;;;16.80
24639;BMP180;1641;51.306;12.384;2022-11-09T10:26:49;99736.00;;;17.00
24639;BMP180;1641;51.306;12.384;2022-11-09T10:29:34;99726.00;;;16.50
24639;BMP180;1641;51.306;12.384;2022-11-09T10:32:09;99725.00;;;16.60
24639;BMP180;1641;51.306;12.384;2022-11-09T10:34:47;99722.00;;;16.30
24639;BMP180;1641;51.306;12.384;2022-11-09T10:37:19;99725.00;;;16.50
24639;BMP180;1641;51.306;12.384;2022-11-09T10:39:50;99727.00;;;16.90
24639;BMP180;1641;51.306;12.384;2022-11-09T10:42:16;99726.00;;;17.00
24639;BMP180;1641;51.306;12.384;2022-11-09T10:44:41;99734.00;;;17.20
24639;BMP180;1641;51.306;12.384;2022-11-09T10:47:09;99727.00;;;17.50
24639;BMP180;1641;51.306;12.384;2022-11-09T10:49:36;99730.00;;;17.60
24639;BMP180;1641;51.306;12.384;2022-11-09T10:52:02;99716.00;;;18.00
24639;BMP180;1641;51.306;12.384;2022-11-09T10:54:33;99726.00;;;17.80
24639;BMP180;1641;51.306;12.384;2022-11-09T10:57:20;99728.00;;;17.70
24639;BMP180;1641;51.306;12.384;2022-11-09T10:59:56;99721.00;;;16.80
24639;BMP180;1641;51.306;12.384;2022-11-09T11:04:51;99730.00;;;17.30
24639;BMP180;1641;51.306;12.384;2022-11-09T11:07:36;99738.00;;;17.70
24639;BMP180;1641;51.306;12.384;2022-11-09T11:10:31;99726.00;;;17.20
24639;BMP180;1641;51.306;12.384;2022-11-09T11:18:03;99730.00;;;17.70
24639;BMP180;1641;51.306;12.384;2022-11-09T11:20:34;99720.00;;;17.80
24639;BMP180;1641;51.306;12.384;2022-11-09T11:23:15;99737.00;;;17.60
24639;BMP180;1641;51.306;12.384;2022-11-09T11:30:50;99716.00;;;18.10
24639;BMP180;1641;51.306;12.384;2022-11-09T11:33:16;99716.00;;;17.70
24639;BMP180;1641;51.306;12.384;2022-11-09T11:35:49;99719.00;;;18.00
24639;BMP180;1641;51.306;12.384;2022-11-09T11:38:26;99716.00;;;18.10
24639;BMP180;1641;51.306;12.384;2022-11-09T11:41:10;99725.00;;;17.80
24639;BMP180;1641;51.306;12.384;2022-11-09T11:46:37;99726.00;;;17.90
24639;BMP180;1641;51.306;12.384;2022-11-09T11:54:42;99727.00;;;17.80
24639;BMP180;1641;51.306;12.384;2022-11-09T11:57:28;99719.00;;;17.60
24639;BMP180;1641;51.306;12.384;2022-11-09T12:00:13;99727.00;;;17.40
24639;BMP180;1641;51.306;12.384;2022-11-09T12:03:05;99733.00;;;17.90
24639;BMP180;1641;51.306;12.384;2022-11-09T12:05:53;99703.00;;;18.00
24639;BMP180;1641;51.306;12.384;2022-11-09T12:08:24;99734.00;;;18.20
24639;BMP180;1641;51.306;12.384;2022-11-09T12:13:55;99734.00;;;18.20
24639;BMP180;1641;51.306;12.384;2022-11-09T12:19:35;99739.00;;;18.40
24639;BMP180;1641;51.306;12.384;2022-11-09T12:22:21;99730.00;;;18.00
24639;BMP180;1641;51.306;12.384;2022-11-09T12:25:13;99731.00;;;18.20
24639;BMP180;1641;51.306;12.384;2022-11-09T12:30:22;99683.00;;;18.40
24639;BMP180;1641;51.306;12.384;2022-11-09T12:32:53;99730.00;;;18.80
24639;BMP180;1641;51.306;12.384;2022-11-09T12:35:34;99715.00;;;18.90
24639;BMP180;1641;51.306;12.384;2022-11-09T12:38:19;99724.00;;;18.70
24639;BMP180;1641;51.306;12.384;2022-11-09T12:40:51;99712.00;;;18.90
24639;BMP180;1641;51.306;12.384;2022-11-09T12:43:29;99700.00;;;18.60
24639;BMP180;1641;51.306;12.384;2022-11-09T12:45:59;99708.00;;;18.60
24639;BMP180;1641;51.306;12.384;2022-11-09T12:48:27;99705.00;;;18.80
24639;BMP180;1641;51.306;12.384;2022-11-09T12:51:02;99697.00;;;18.30
24639;BMP180;1641;51.306;12.384;2022-11-09T12:53:31;99711.00;;;17.90
24639;BMP180;1641;51.306;12.384;2022-11-09T12:56:19;99705.00;;;17.80
24639;BMP180;1641;51.306;12.384;2022-11-09T12:58:47;99705.00;;;18.20
24639;BMP180;1641;51.306;12.384;2022-11-09T13:04:18;99688.00;;;18.10
24639;BMP180;1641;51.306;12.384;2022-11-09T13:09:27;99682.00;;;18.10
24639;BMP180;1641;51.306;12.384;2022-11-09T13:11:53;99687.00;;;18.20
24639;BMP180;1641;51.306;12.384;2022-11-09T13:17:00;99684.00;;;18.00
24639;BMP180;1641;51.306;12.384;2022-11-09T13:24:59;99666.00;;;18.20
24639;BMP180;1641;51.306;12.384;2022-11-09T13:27:40;99694.00;;;18.10
24639;BMP180;1641;51.306;12.384;2022-11-09T13:38:31;99705.00;;;17.70
24639;BMP180;1641;51.306;12.384;2022-11-09T13:40:58;99673.00;;;17.60
24639;BMP180;1641;51.306;12.384;2022-11-09T13:43:36;99711.00;;;17.50
24639;BMP180;1641;51.306;12.384;2022-11-09T13:46:32;99721.00;;;17.80
24639;BMP180;1641;51.306;12.384;2022-11-09T13:48:59;99727.00;;;17.80
24639;BMP180;1641;51.306;12.384;2022-11-09T13:54:03;99721.00;;;18.60
24639;BMP180;1641;51.306;12.384;2022-11-09T13:56:33;99737.00;;;18.20
24639;BMP180;1641;51.306;12.384;2022-11-09T13:59:16;99730.00;;;18.20
24639;BMP180;1641;51.306;12.384;2022-11-09T14:01:48;99726.00;;;18.50
24639;BMP180;1641;51.306;12.384;2022-11-09T14:04:26;99732.00;;;18.50
24639;BMP180;1641;51.306;12.384;2022-11-09T14:07:11;99736.00;;;18.20
24639;BMP180;1641;51.306;12.384;2022-11-09T14:10:02;99742.00;;;18.40
24639;BMP180;1641;51.306;12.384;2022-11-09T14:18:33;99742.00;;;18.20
24639;BMP180;1641;51.306;12.384;2022-11-09T14:21:14;99734.00;;;18.10
24639;BMP180;1641;51.306;12.384;2022-11-09T14:23:40;99741.00;;;18.10
24639;BMP180;1641;51.306;12.384;2022-11-09T14:26:08;99723.00;;;18.10
24639;BMP180;1641;51.306;12.384;2022-11-09T14:28:36;99738.00;;;17.60
24639;BMP180;1641;51.306;12.384;2022-11-09T14:31:04;99731.00;;;17.80
24639;BMP180;1641;51.306;12.384;2022-11-09T14:33:32;99742.00;;;17.50
24639;BMP180;1641;51.306;12.384;2022-11-09T14:36:01;99746.00;;;17.20
24639;BMP180;1641;51.306;12.384;2022-11-09T14:38:30;99750.00;;;17.30
24639;BMP180;1641;51.306;12.384;2022-11-09T14:40:57;99703.00;;;17.10
24639;BMP180;1641;51.306;12.384;2022-11-09T14:43:43;99740.00;;;17.10
24639;BMP180;1641;51.306;12.384;2022-11-09T14:46:17;99755.00;;;17.10
24639;BMP180;1641;51.306;12.384;2022-11-09T14:48:57;99771.00;;;16.90
24639;BMP180;1641;51.306;12.384;2022-11-09T14:51:35;99772.00;;;16.80
24639;BMP180;1641;51.306;12.384;2022-11-09T14:54:05;99767.00;;;16.90
24639;BMP180;1641;51.306;12.384;2022-11-09T14:56:31;99753.00;;;16.90
24639;BMP180;1641;51.306;12.384;2022-11-09T14:58:58;99774.00;;;16.90
24639;BMP180;1641;51.306;12.384;2022-11-09T15:01:26;99707.00;;;17.10
24639;BMP180;1641;51.306;12.384;2022-11-09T15:04:14;99769.00;;;17.10
24639;BMP180;1641;51.306;12.384;2022-11-09T15:06:52;99771.00;;;17.20
24639;BMP180;1641;51.306;12.384;2022-11-09T15:09:21;99742.00;;;16.80
24639;BMP180;1641;51.306;12.384;2022-11-09T15:11:48;99760.00;;;16.70
24639;BMP180;1641;51.306;12.384;2022-11-09T15:14:33;99769.00;;;16.80
24639;BMP180;1641;51.306;12.384;2022-11-09T15:17:11;99758.00;;;16.70
24639;BMP180;1641;51.306;12.384;2022-11-09T15:19:51;99777.00;;;16.80
24639;BMP180;1641;51.306;12.384;2022-11-09T15:25:00;99767.00;;;16.80
24639;BMP180;1641;51.306;12.384;2022-11-09T15:27:32;99769.00;;;16.80
24639;BMP180;1641;51.306;12.384;2022-11-09T15:29:58;99774.00;;;16.80
24639;BMP180;1641;51.306;12.384;2022-11-09T15:32:23;99773.00;;;16.80
24639;BMP180;1641;51.306;12.384;2022-11-09T15:37:28;99769.00;;;17.10
24639;BMP180;1641;51.306;12.384;2022-11-09T15:39:55;99773.00;;;17.30
24639;BMP180;1641;51.306;12.384;2022-11-09T15:42:21;99783.00;;;17.10
24639;BMP180;1641;51.306;12.384;2022-11-09T15:44:51;99778.00;;;17.20